Lillooet, Canada
Current Conditions -  °F | °C
As of 8:37 AM on Sunday 21 Dec 2014 (Local Time) from CWLY Reporting Station
Moderate Fog Moderate Fog  
Wind Chill: 36°   Ceiling: 10000
Heat Index: 36°   Visibility: 0.25mi
Dew Point: 36°   Wind: 2mph
Humidity: 100%   Direction: NA
Pressure: 29.68"   Gusts: NA
Location:  50.68°N, 121.93°W
Report Text: CWLY 211637Z AUTO VRB02KT 1/4SM FG SCT002 BKN100 02/02 A2968 RMK PRESRR SLP057
Loading
Personal Weather Stations






























Interactive Weather Map New forecast layout! Learn more

10-Day Weather Forecast

Advertisements
Track Severe Weather on mobile